Terminal Aerodrome Forecast
Issued by NWS Blacksburg, VA

Home | Current Version | Previous Version | Text Only | Print | Product List | Glossary On
Versions: 1 2 3 4 5 6 7 8 9 10 11 12 13 14 15 16 17 18 19 20 21 22 23 24 25 26 27 28 29 30 31 32
000
FTUS41 KRNK 261145
TAFROA
TAF
KROA 261145Z 2612/2712 12008KT P6SM OVC003
      TEMPO 2612/2614 5SM -DZ BR
     FM261600 16007KT P6SM BKN012 OVC050
     FM262300 17007KT P6SM VCSH BKN025 OVC045
     FM270100 18005KT 5SM SHRA BR OVC015
     FM270600 29007KT P6SM BKN025 OVC100=

USA.gov is the U.S. government's official web portal to all federal, state and local government web resources and services.